Time;durP1;ratioP1;P1;durP2;ratioP2;P2;SDS_P1;SDS_P2;PMS_P1;PMS_P2;Temp;Humidity;BMP_temperature;BMP_pressure;BME280_temperature;BME280_humidity;BME280_pressure;Samples;Min_cycle;Max_cycle;Signal;HPM_P1;HPM_P2
2023/11/22 00:02:17;;;;;;;1.60;1.30;;;6.20;98.20;;;;;;5052179;28;20899;-85
2023/11/22 00:04:44;;;;;;;1.60;1.30;;;6.20;98.20;;;;;;5043175;28;20984;-85
2023/11/22 00:07:12;;;;;;;1.60;1.30;;;6.30;98.20;;;;;;5040882;28;20543;-84
2023/11/22 00:09:39;;;;;;;1.70;1.40;;;6.30;98.20;;;;;;5052021;28;20456;-84
2023/11/22 00:12:08;;;;;;;1.60;1.30;;;6.30;98.20;;;;;;5043787;28;21011;-84
2023/11/22 00:14:36;;;;;;;1.70;1.50;;;6.30;98.20;;;;;;5055391;28;20460;-84
2023/11/22 00:17:03;;;;;;;1.60;1.27;;;6.30;98.20;;;;;;5048946;28;20508;-84
2023/11/22 00:19:32;;;;;;;1.70;1.50;;;6.30;98.20;;;;;;5050230;28;20469;-84
2023/11/22 00:22:05;;;;;;;1.70;1.30;;;6.30;98.20;;;;;;5044409;28;20481;-84
2023/11/22 00:24:45;;;;;;;1.67;1.30;;;6.30;98.20;;;;;;5048341;28;20985;-85
2023/11/22 00:27:15;;;;;;;1.63;1.30;;;6.40;98.20;;;;;;5050338;28;20481;-84
2023/11/22 00:29:42;;;;;;;1.60;1.30;;;6.40;98.20;;;;;;5058917;28;20516;-84
2023/11/22 00:32:09;;;;;;;1.67;1.30;;;6.40;98.20;;;;;;5048458;28;20473;-84
2023/11/22 00:34:36;;;;;;;1.63;1.30;;;6.50;98.20;;;;;;5040645;28;20749;-84
2023/11/22 00:37:03;;;;;;;1.60;1.30;;;6.50;98.20;;;;;;5031365;28;20486;-84
2023/11/22 00:39:30;;;;;;;1.60;1.30;;;6.50;98.20;;;;;;5056107;28;20918;-84
2023/11/22 00:41:58;;;;;;;1.60;1.30;;;6.50;98.20;;;;;;5044170;28;20477;-83
2023/11/22 00:44:25;;;;;;;1.63;1.30;;;6.50;98.20;;;;;;5050942;28;20464;-84
2023/11/22 00:46:52;;;;;;;1.60;1.30;;;6.40;98.20;;;;;;5034319;28;20536;-83
2023/11/22 00:49:19;;;;;;;1.60;1.30;;;6.40;98.20;;;;;;5049178;28;20534;-83
2023/11/22 00:51:47;;;;;;;2.43;2.23;;;6.40;98.20;;;;;;5037812;28;20513;-83
2023/11/22 00:54:15;;;;;;;1.67;1.30;;;6.40;98.20;;;;;;5054832;28;20466;-83
2023/11/22 00:56:41;;;;;;;1.60;1.20;;;6.40;98.20;;;;;;5044917;28;20485;-84
2023/11/22 00:59:10;;;;;;;1.60;1.30;;;6.40;98.20;;;;;;5062257;28;20565;-83
2023/11/22 01:01:37;;;;;;;1.60;1.30;;;6.40;98.20;;;;;;5050484;28;20484;-83
2023/11/22 01:04:04;;;;;;;1.70;1.30;;;6.40;98.20;;;;;;5056654;28;21119;-83
2023/11/22 01:06:32;;;;;;;1.60;1.30;;;6.40;98.20;;;;;;5038645;28;20531;-84
2023/11/22 01:08:58;;;;;;;1.60;1.30;;;6.40;98.20;;;;;;5059242;28;20508;-83
2023/11/22 01:11:26;;;;;;;1.63;1.30;;;6.40;98.20;;;;;;5043018;28;20553;-83
2023/11/22 01:13:52;;;;;;;1.63;1.30;;;6.30;98.20;;;;;;5055341;28;20534;-83
2023/11/22 01:16:21;;;;;;;2.00;1.80;;;6.30;98.20;;;;;;5043903;28;20513;-83
2023/11/22 01:18:48;;;;;;;1.60;1.30;;;6.30;98.20;;;;;;5054108;28;20534;-83
2023/11/22 01:21:15;;;;;;;1.63;1.30;;;6.30;98.20;;;;;;5042897;28;20549;-83
2023/11/22 01:23:41;;;;;;;1.67;1.40;;;6.30;98.20;;;;;;5054537;28;20462;-83
2023/11/22 01:26:09;;;;;;;1.63;1.30;;;6.20;98.20;;;;;;5040496;28;20474;-82
2023/11/22 01:28:37;;;;;;;1.67;1.30;;;6.20;98.20;;;;;;5057467;28;20478;-83
2023/11/22 01:31:04;;;;;;;1.67;1.30;;;6.20;98.20;;;;;;5035569;28;20540;-83
2023/11/22 01:33:34;;;;;;;1.63;1.30;;;6.10;98.20;;;;;;5058595;28;20462;-83
2023/11/22 01:36:01;;;;;;;1.63;1.30;;;6.10;98.20;;;;;;5034845;28;21063;-83
2023/11/22 01:38:28;;;;;;;1.60;1.30;;;6.10;98.20;;;;;;5052171;28;20454;-83
2023/11/22 01:40:55;;;;;;;1.70;1.40;;;6.00;98.20;;;;;;5033901;28;20471;-83
2023/11/22 01:43:23;;;;;;;1.63;1.30;;;6.00;98.20;;;;;;5064063;28;20546;-83
2023/11/22 01:45:50;;;;;;;1.70;1.40;;;5.90;98.20;;;;;;5029563;28;20451;-83
2023/11/22 01:48:18;;;;;;;1.63;1.40;;;5.90;98.20;;;;;;5060060;28;20484;-83
2023/11/22 01:50:46;;;;;;;1.67;1.33;;;5.90;98.20;;;;;;5043213;28;20490;-83
2023/11/22 01:53:14;;;;;;;1.63;1.30;;;5.80;98.20;;;;;;5042627;28;20481;-83
2023/11/22 01:55:42;;;;;;;1.60;1.30;;;5.80;98.20;;;;;;5038662;28;20487;-83
2023/11/22 01:58:13;;;;;;;1.60;1.30;;;5.80;98.20;;;;;;5043984;28;20600;-83
2023/11/22 02:00:46;;;;;;;1.67;1.30;;;5.80;98.20;;;;;;5037515;28;20459;-83
2023/11/22 02:03:13;;;;;;;1.70;1.50;;;5.80;98.20;;;;;;5012427;28;20513;-85
2023/11/22 02:05:42;;;;;;;1.60;1.30;;;5.80;98.20;;;;;;5026251;28;20542;-83
2023/11/22 02:08:11;;;;;;;1.60;1.30;;;5.80;98.20;;;;;;5052773;28;20482;-84
2023/11/22 02:10:38;;;;;;;1.70;1.50;;;5.80;98.20;;;;;;5054863;28;20569;-83
2023/11/22 02:13:07;;;;;;;1.70;1.40;;;5.80;98.20;;;;;;5014969;28;20517;-84
2023/11/22 02:15:34;;;;;;;1.60;1.30;;;5.80;98.20;;;;;;5031505;28;21203;-83
2023/11/22 02:18:02;;;;;;;1.60;1.30;;;5.80;98.20;;;;;;5032643;28;20478;-83
2023/11/22 02:20:29;;;;;;;1.63;1.33;;;5.80;98.20;;;;;;5031745;28;20875;-82
2023/11/22 02:22:56;;;;;;;1.63;1.30;;;5.80;98.20;;;;;;5034351;28;20475;-83
2023/11/22 02:25:25;;;;;;;1.63;1.27;;;5.70;98.20;;;;;;5025116;28;20559;-83
2023/11/22 02:27:51;;;;;;;1.60;1.30;;;5.70;98.20;;;;;;5034853;28;20557;-83
2023/11/22 02:30:18;;;;;;;1.60;1.30;;;5.80;98.20;;;;;;5026078;28;20455;-83
2023/11/22 02:32:46;;;;;;;1.63;1.30;;;5.70;98.20;;;;;;5029187;28;20481;-83
2023/11/22 02:35:13;;;;;;;1.67;1.30;;;5.70;98.20;;;;;;5028217;28;20459;-83
2023/11/22 02:37:40;;;;;;;1.63;1.30;;;5.70;98.20;;;;;;5028816;28;20493;-81
2023/11/22 02:40:15;;;;;;;1.70;1.40;;;5.70;98.20;;;;;;5033285;28;20535;-82
2023/11/22 02:42:43;;;;;;;1.67;1.30;;;5.70;98.20;;;;;;5032748;28;20499;-84
2023/11/22 02:45:11;;;;;;;1.67;1.30;;;5.70;98.20;;;;;;5025195;28;20471;-83
2023/11/22 02:47:38;;;;;;;1.60;1.30;;;5.70;98.20;;;;;;5026492;28;20489;-83
2023/11/22 02:50:05;;;;;;;1.60;1.33;;;5.60;98.20;;;;;;5027905;28;20555;-82
2023/11/22 02:52:32;;;;;;;1.63;1.30;;;5.50;98.20;;;;;;5034700;28;20585;-83
2023/11/22 02:54:59;;;;;;;1.70;1.50;;;5.50;98.20;;;;;;5037407;28;20463;-83
2023/11/22 02:57:26;;;;;;;1.60;1.30;;;5.50;98.20;;;;;;5034873;28;20569;-84
2023/11/22 02:59:54;;;;;;;1.67;1.30;;;5.40;98.20;;;;;;5027945;28;20458;-83
2023/11/22 03:02:21;;;;;;;1.67;1.30;;;5.40;98.20;;;;;;5051305;28;20633;-83
2023/11/22 03:04:48;;;;;;;1.60;1.30;;;5.30;98.20;;;;;;5054315;28;20983;-83
2023/11/22 03:07:15;;;;;;;1.60;1.30;;;5.30;98.20;;;;;;5053750;28;20512;-83
2023/11/22 03:09:43;;;;;;;1.70;1.40;;;5.20;98.20;;;;;;5063644;28;20581;-83
2023/11/22 03:12:12;;;;;;;1.60;1.30;;;5.20;98.20;;;;;;5056054;28;20971;-83
2023/11/22 03:14:39;;;;;;;1.60;1.30;;;5.20;98.20;;;;;;5056257;28;20521;-83
2023/11/22 03:17:08;;;;;;;1.70;1.30;;;5.10;98.20;;;;;;5053416;28;20519;-83
2023/11/22 03:19:35;;;;;;;1.70;1.50;;;5.10;98.20;;;;;;5054272;28;20494;-84
2023/11/22 03:22:02;;;;;;;1.60;1.40;;;5.00;98.20;;;;;;5049570;28;20489;-83
2023/11/22 03:24:30;;;;;;;1.70;1.40;;;5.00;98.20;;;;;;5048585;28;20461;-83
2023/11/22 03:26:58;;;;;;;1.70;1.50;;;4.90;98.20;;;;;;5049894;28;20549;-83
2023/11/22 03:29:26;;;;;;;1.63;1.40;;;4.90;98.20;;;;;;5050967;28;20470;-84
2023/11/22 03:31:53;;;;;;;1.67;1.40;;;4.90;98.20;;;;;;5040105;28;20539;-83
2023/11/22 03:34:22;;;;;;;1.60;1.40;;;4.80;98.20;;;;;;5037351;28;20959;-83
2023/11/22 03:36:49;;;;;;;1.70;1.40;;;4.80;98.20;;;;;;5028465;28;20490;-82
2023/11/22 03:39:16;;;;;;;1.70;1.40;;;4.70;98.20;;;;;;5033563;28;20474;-83
2023/11/22 03:41:43;;;;;;;1.70;1.40;;;4.70;98.20;;;;;;5027359;28;20482;-82
2023/11/22 03:44:10;;;;;;;1.67;1.40;;;4.70;98.20;;;;;;5045806;28;20483;-82
2023/11/22 03:46:37;;;;;;;1.70;1.40;;;4.70;98.20;;;;;;5028894;28;20500;-82
2023/11/22 03:49:04;;;;;;;1.67;1.30;;;4.70;98.20;;;;;;5040818;28;20478;-82
2023/11/22 03:51:32;;;;;;;1.70;1.40;;;4.60;98.20;;;;;;5029810;28;20569;-83
2023/11/22 03:53:58;;;;;;;1.67;1.40;;;4.60;98.20;;;;;;5046303;28;20452;-83
2023/11/22 03:56:25;;;;;;;1.70;1.40;;;4.50;98.20;;;;;;5021746;28;20487;-83
2023/11/22 03:58:52;;;;;;;1.67;1.40;;;4.50;98.20;;;;;;5045817;28;20542;-81
2023/11/22 04:01:20;;;;;;;1.70;1.40;;;4.50;98.20;;;;;;5023856;28;20477;-82
2023/11/22 04:03:48;;;;;;;1.70;1.40;;;4.50;98.20;;;;;;5040192;28;20471;-81
2023/11/22 04:06:16;;;;;;;1.70;1.40;;;4.40;98.20;;;;;;5018401;28;20504;-81
2023/11/22 04:08:45;;;;;;;1.67;1.40;;;4.40;98.20;;;;;;5031937;28;20483;-81
2023/11/22 04:11:12;;;;;;;1.70;1.50;;;4.40;98.20;;;;;;5013236;28;20486;-81
2023/11/22 04:13:49;;;;;;;1.70;1.40;;;4.30;98.20;;;;;;5042717;28;20998;-82
2023/11/22 04:16:17;;;;;;;1.60;1.40;;;4.30;98.20;;;;;;5021375;28;20466;-81
2023/11/22 04:18:44;;;;;;;1.60;1.40;;;4.30;98.20;;;;;;5031743;28;20558;-81
2023/11/22 04:21:11;;;;;;;1.67;1.40;;;4.30;98.20;;;;;;5020474;28;20542;-81
2023/11/22 04:23:39;;;;;;;1.70;1.50;;;4.20;98.20;;;;;;5042510;28;20466;-81
2023/11/22 04:26:07;;;;;;;1.70;1.40;;;4.20;98.20;;;;;;5024062;28;20930;-81
2023/11/22 04:28:34;;;;;;;1.67;1.40;;;4.20;98.20;;;;;;5042164;28;20463;-81
2023/11/22 04:31:01;;;;;;;1.63;1.40;;;4.20;98.20;;;;;;5019143;28;20526;-80
2023/11/22 04:33:28;;;;;;;1.70;1.40;;;4.20;98.20;;;;;;5041435;28;20583;-81
2023/11/22 04:35:56;;;;;;;1.70;1.40;;;4.20;98.20;;;;;;5024600;28;20466;-80
2023/11/22 04:38:23;;;;;;;1.70;1.50;;;4.20;98.20;;;;;;5054975;28;20539;-80
2023/11/22 04:40:50;;;;;;;1.70;1.50;;;4.10;98.20;;;;;;5017445;28;20479;-81
2023/11/22 04:43:19;;;;;;;1.60;1.40;;;4.10;98.20;;;;;;5045059;28;20517;-80
2023/11/22 04:45:46;;;;;;;1.63;1.40;;;4.10;98.20;;;;;;5031312;28;20467;-81
2023/11/22 04:48:15;;;;;;;1.70;1.40;;;4.10;98.20;;;;;;5018928;28;20474;-81
2023/11/22 04:50:42;;;;;;;1.70;1.40;;;4.10;98.20;;;;;;5031753;28;20471;-81
2023/11/22 04:53:09;;;;;;;1.70;1.40;;;4.10;98.20;;;;;;5037490;28;20490;-80
2023/11/22 04:55:36;;;;;;;1.70;1.40;;;4.10;98.20;;;;;;5030956;28;20491;-80
2023/11/22 04:58:04;;;;;;;1.70;1.40;;;4.10;98.20;;;;;;5036323;28;20480;-80
2023/11/22 05:00:32;;;;;;;1.70;1.50;;;4.00;98.20;;;;;;5031668;28;20892;-80
2023/11/22 05:02:59;;;;;;;1.63;1.40;;;4.00;98.20;;;;;;5039849;28;20478;-79
2023/11/22 05:05:26;;;;;;;1.70;1.40;;;4.00;98.20;;;;;;5028368;28;20759;-80
2023/11/22 05:07:53;;;;;;;1.67;1.30;;;4.00;98.20;;;;;;5027746;28;20483;-79
2023/11/22 05:10:21;;;;;;;1.67;1.40;;;4.00;98.20;;;;;;5027418;28;20462;-80
2023/11/22 05:12:48;;;;;;;1.67;1.40;;;4.00;98.20;;;;;;5028997;28;20479;-80
2023/11/22 05:15:15;;;;;;;1.70;1.50;;;3.90;98.20;;;;;;5029555;28;20554;-80
2023/11/22 05:17:44;;;;;;;1.60;1.40;;;3.90;98.20;;;;;;5048712;28;20481;-80
2023/11/22 05:20:11;;;;;;;1.63;1.30;;;3.90;98.20;;;;;;5051510;28;20467;-80
2023/11/22 05:22:39;;;;;;;1.70;1.40;;;3.90;98.20;;;;;;5054942;28;20478;-80
2023/11/22 05:25:07;;;;;;;1.70;1.53;;;3.90;98.20;;;;;;5050319;28;20879;-81
2023/11/22 05:27:34;;;;;;;1.70;1.43;;;3.90;98.20;;;;;;5049362;28;20948;-81
2023/11/22 05:30:01;;;;;;;1.70;1.60;;;3.90;98.20;;;;;;5052763;28;20490;-81
2023/11/22 05:32:31;;;;;;;1.70;1.40;;;3.80;98.20;;;;;;5052283;28;20509;-81
2023/11/22 05:35:11;;;;;;;1.70;1.50;;;3.80;98.20;;;;;;5055048;28;20542;-81
2023/11/22 05:37:40;;;;;;;1.70;1.50;;;3.80;98.20;;;;;;5049300;28;20504;-81
2023/11/22 05:40:10;;;;;;;1.70;1.50;;;3.70;98.20;;;;;;5048519;28;20617;-81
2023/11/22 05:42:37;;;;;;;1.70;1.53;;;3.70;98.20;;;;;;5054357;28;20535;-81
2023/11/22 05:45:06;;;;;;;1.70;1.50;;;3.70;98.20;;;;;;5046751;28;20510;-81
2023/11/22 05:47:33;;;;;;;1.70;1.50;;;3.70;98.20;;;;;;5049065;28;20512;-81
2023/11/22 05:50:02;;;;;;;1.70;1.50;;;3.70;98.20;;;;;;5052203;28;20493;-80
2023/11/22 05:56:08;;;;;;;1.70;1.50;;;3.70;98.20;;;;;;5040531;28;20953;-81
2023/11/22 05:58:39;;;;;;;1.70;1.60;;;3.60;98.20;;;;;;5063763;28;20487;-82
2023/11/22 06:01:08;;;;;;;1.70;1.40;;;3.60;98.20;;;;;;5039762;28;20493;-82
2023/11/22 06:03:41;;;;;;;1.70;1.40;;;3.60;98.20;;;;;;5059603;28;20855;-82
2023/11/22 06:06:10;;;;;;;1.70;1.50;;;3.60;98.20;;;;;;5044943;28;20471;-82
2023/11/22 06:08:37;;;;;;;1.70;1.50;;;3.60;98.20;;;;;;5058943;28;20478;-81
2023/11/22 06:11:07;;;;;;;1.70;1.50;;;3.60;98.20;;;;;;5037665;28;20722;-81
2023/11/22 06:13:34;;;;;;;1.70;1.50;;;3.50;98.20;;;;;;5061909;28;20454;-81
2023/11/22 06:16:02;;;;;;;8.83;4.47;;;3.50;98.20;;;;;;5041707;28;20462;-82
2023/11/22 06:18:40;;;;;;;1.70;1.50;;;3.50;98.20;;;;;;5060201;28;20506;-81
2023/11/22 06:21:12;;;;;;;1.70;1.50;;;3.50;98.20;;;;;;5042688;28;20482;-82
2023/11/22 06:24:08;;;;;;;1.70;1.50;;;3.40;98.20;;;;;;5062279;28;20616;-81
2023/11/22 06:26:47;;;;;;;1.70;1.50;;;3.40;98.20;;;;;;5041194;28;20482;-82
2023/11/22 06:30:06;;;;;;;1.70;1.60;;;3.40;98.20;;;;;;5060900;28;20545;-82
2023/11/22 06:36:04;;;;;;;1.70;1.50;;;3.20;98.20;;;;;;5059940;28;20450;-80
2023/11/22 06:38:40;;;;;;;1.70;1.50;;;3.20;98.20;;;;;;5042931;28;20497;-81
2023/11/22 06:41:41;;;;;;;1.70;1.50;;;3.10;98.20;;;;;;5047966;28;20482;-81
2023/11/22 06:50:46;;;;;;;1.70;1.50;;;3.00;98.20;;;;;;4872246;29;20545;-80
2023/11/22 06:53:13;;;;;;;1.70;1.60;;;3.00;98.20;;;;;;4900825;28;20939;-80
2023/11/22 06:55:42;;;;;;;1.70;1.50;;;3.00;98.20;;;;;;4990176;28;20540;-81
2023/11/22 06:58:11;;;;;;;1.70;1.50;;;3.00;98.20;;;;;;4969978;28;20909;-77
2023/11/22 07:00:39;;;;;;;1.70;1.53;;;2.90;98.20;;;;;;4988267;28;20461;-79
2023/11/22 07:03:07;;;;;;;1.73;1.63;;;2.90;98.20;;;;;;4976360;28;20481;-78
2023/11/22 07:05:35;;;;;;;1.70;1.50;;;2.90;98.20;;;;;;5046431;28;20520;-79
2023/11/22 07:08:03;;;;;;;1.70;1.50;;;2.90;98.20;;;;;;5051093;28;20710;-78
2023/11/22 07:10:34;;;;;;;1.70;1.50;;;2.80;98.20;;;;;;5047024;28;20462;-78
2023/11/22 07:13:03;;;;;;;1.70;1.50;;;2.80;98.20;;;;;;5053458;28;20507;-78
2023/11/22 07:15:30;;;;;;;1.70;1.60;;;2.80;98.20;;;;;;5045022;28;20521;-79
2023/11/22 07:17:57;;;;;;;1.70;1.60;;;2.80;98.20;;;;;;5048383;28;20469;-79
2023/11/22 07:20:27;;;;;;;1.70;1.50;;;2.80;98.20;;;;;;5029168;28;20491;-80
2023/11/22 07:22:57;;;;;;;1.70;1.47;;;2.80;98.20;;;;;;5047671;28;20473;-79
2023/11/22 07:25:24;;;;;;;1.70;1.50;;;2.80;98.20;;;;;;5028146;28;20459;-79
2023/11/22 07:27:53;;;;;;;1.70;1.50;;;2.80;98.20;;;;;;5050219;28;20481;-79
2023/11/22 07:30:23;;;;;;;1.70;1.57;;;2.80;98.20;;;;;;5026966;28;20523;-79
2023/11/22 07:32:51;;;;;;;1.70;1.60;;;2.70;98.20;;;;;;5047787;28;20819;-79
2023/11/22 07:35:21;;;;;;;1.70;1.50;;;2.80;98.20;;;;;;5027779;28;20477;-79
2023/11/22 07:37:48;;;;;;;1.90;1.70;;;2.80;98.20;;;;;;5052252;28;20472;-79
2023/11/22 07:40:16;;;;;;;1.70;1.50;;;2.80;98.20;;;;;;5032489;28;20966;-78
2023/11/22 07:42:43;;;;;;;1.70;1.50;;;2.80;98.20;;;;;;5050923;28;20476;-78
2023/11/22 07:45:11;;;;;;;1.70;1.50;;;2.90;98.20;;;;;;5030301;28;20463;-77
2023/11/22 07:47:41;;;;;;;1.70;1.50;;;3.00;98.20;;;;;;5046450;28;20474;-78
2023/11/22 07:50:09;;;;;;;1.70;1.50;;;3.00;98.20;;;;;;5029486;28;20452;-77
2023/11/22 07:52:37;;;;;;;1.70;1.50;;;3.10;98.20;;;;;;5042365;28;20466;-78
2023/11/22 07:55:07;;;;;;;1.70;1.50;;;3.20;98.20;;;;;;5031769;28;20466;-78
2023/11/22 07:57:34;;;;;;;1.70;1.50;;;3.30;98.20;;;;;;5042915;28;20480;-77
2023/11/22 08:00:07;;;;;;;1.70;1.60;;;3.40;98.20;;;;;;5035078;28;20495;-77
2023/11/22 08:02:34;;;;;;;1.70;1.50;;;3.50;98.20;;;;;;5047249;28;20477;-78
2023/11/22 08:05:03;;;;;;;1.70;1.50;;;3.50;98.20;;;;;;5035611;28;20455;-77
2023/11/22 08:07:32;;;;;;;1.70;1.50;;;3.60;98.20;;;;;;5045904;28;20554;-79
2023/11/22 08:10:09;;;;;;;1.70;1.50;;;3.70;98.20;;;;;;5034106;28;20463;-77
2023/11/22 08:12:36;;;;;;;1.70;1.60;;;3.80;98.20;;;;;;5048271;28;20477;-78
2023/11/22 08:15:03;;;;;;;1.70;1.50;;;3.90;98.20;;;;;;5036522;28;21275;-78
2023/11/22 08:17:32;;;;;;;1.70;1.50;;;4.00;98.20;;;;;;5048751;28;20599;-77
2023/11/22 08:19:59;;;;;;;1.70;1.50;;;4.10;98.20;;;;;;5034317;28;20478;-78
2023/11/22 08:22:28;;;;;;;1.70;1.50;;;4.10;98.20;;;;;;5043095;28;20477;-78
2023/11/22 08:24:57;;;;;;;1.70;1.50;;;4.20;98.20;;;;;;5034733;28;20824;-78
2023/11/22 08:27:24;;;;;;;1.70;1.40;;;4.20;98.20;;;;;;5044072;28;20488;-77
2023/11/22 08:29:50;;;;;;;1.70;1.50;;;4.30;98.20;;;;;;5035145;28;20463;-78
2023/11/22 08:32:20;;;;;;;1.70;1.40;;;4.50;98.20;;;;;;5042278;28;20477;-78
2023/11/22 08:34:47;;;;;;;1.67;1.40;;;4.50;98.20;;;;;;5034465;28;20460;-78
2023/11/22 08:37:14;;;;;;;1.70;1.50;;;4.60;98.20;;;;;;5042052;28;20473;-79
2023/11/22 08:39:43;;;;;;;1.70;1.50;;;4.60;98.20;;;;;;5039658;28;20459;-78
2023/11/22 08:42:10;;;;;;;1.70;1.40;;;4.70;98.20;;;;;;5040429;28;20483;-78
2023/11/22 08:44:37;;;;;;;1.70;1.40;;;4.70;98.20;;;;;;5035921;28;20529;-78
2023/11/22 08:47:05;;;;;;;1.63;1.40;;;4.70;98.20;;;;;;5040506;28;20466;-79
2023/11/22 08:49:32;;;;;;;1.70;1.40;;;4.80;98.20;;;;;;5041234;28;20455;-79
2023/11/22 08:51:59;;;;;;;1.67;1.40;;;4.80;98.20;;;;;;5035915;28;20478;-79
2023/11/22 08:54:28;;;;;;;2.03;1.83;;;4.90;98.20;;;;;;5043173;28;20463;-79
2023/11/22 08:56:57;;;;;;;1.70;1.40;;;5.00;98.20;;;;;;5040884;28;20477;-79
2023/11/22 08:59:24;;;;;;;1.70;1.37;;;5.00;98.20;;;;;;5043170;28;20499;-79
2023/11/22 09:01:50;;;;;;;1.70;1.40;;;5.10;98.20;;;;;;5038035;28;20618;-80
2023/11/22 09:04:18;;;;;;;1.70;1.40;;;5.20;98.20;;;;;;5043078;28;20549;-79
2023/11/22 09:06:47;;;;;;;1.70;1.40;;;5.20;98.20;;;;;;5034839;28;20485;-79
2023/11/22 09:09:15;;;;;;;1.70;1.40;;;5.30;98.20;;;;;;5042501;28;20463;-79
2023/11/22 09:11:41;;;;;;;1.70;1.40;;;5.30;98.20;;;;;;5033669;28;20566;-79
2023/11/22 09:14:10;;;;;;;1.70;1.40;;;5.40;98.20;;;;;;5046104;28;20474;-79
2023/11/22 09:16:38;;;;;;;1.67;1.37;;;5.40;98.20;;;;;;5030082;28;20528;-79
2023/11/22 09:19:06;;;;;;;1.70;1.40;;;5.50;98.20;;;;;;5045195;28;20939;-80
2023/11/22 09:21:33;;;;;;;1.70;1.40;;;5.60;98.20;;;;;;5026231;28;20478;-81
2023/11/22 09:24:00;;;;;;;1.63;1.30;;;5.60;98.20;;;;;;5035907;28;20460;-79
2023/11/22 09:26:26;;;;;;;1.63;1.40;;;5.80;98.20;;;;;;5020673;28;20525;-79
2023/11/22 09:28:54;;;;;;;1.70;1.40;;;5.90;98.20;;;;;;5040656;28;20466;-79
2023/11/22 09:31:23;;;;;;;1.60;1.30;;;5.90;98.20;;;;;;5025462;28;20505;-79
2023/11/22 09:33:50;;;;;;;1.63;1.30;;;6.00;98.20;;;;;;5059106;28;20472;-80
2023/11/22 09:36:17;;;;;;;1.63;1.30;;;6.20;98.20;;;;;;5039040;28;20484;-83
2023/11/22 09:38:44;;;;;;;1.67;1.20;;;6.30;98.20;;;;;;5061318;28;20857;-80
2023/11/22 09:41:12;;;;;;;1.60;1.23;;;6.40;98.20;;;;;;5040570;28;20572;-80
2023/11/22 09:43:40;;;;;;;1.60;1.23;;;6.50;98.20;;;;;;5059722;28;20454;-80
2023/11/22 09:46:11;;;;;;;1.70;1.33;;;6.60;98.20;;;;;;5035888;28;20489;-80
2023/11/22 09:48:41;;;;;;;1.70;1.30;;;6.60;98.20;;;;;;5062283;28;20450;-80
2023/11/22 09:51:17;;;;;;;1.60;1.23;;;6.70;98.20;;;;;;5038149;28;20482;-81
2023/11/22 09:53:53;;;;;;;1.63;1.30;;;6.80;98.20;;;;;;5058094;28;20494;-81
2023/11/22 09:56:21;;;;;;;1.60;1.30;;;6.90;98.20;;;;;;5040029;28;20493;-81
2023/11/22 09:58:54;;;;;;;1.67;1.30;;;7.00;98.20;;;;;;5062145;28;20509;-81
2023/11/22 10:01:22;;;;;;;1.70;1.50;;;7.10;98.20;;;;;;5035929;28;20480;-81
2023/11/22 10:03:51;;;;;;;1.60;1.30;;;7.20;98.20;;;;;;5058842;28;20956;-81
2023/11/22 10:06:18;;;;;;;1.60;1.30;;;7.20;98.20;;;;;;5040072;28;20804;-81
2023/11/22 10:08:47;;;;;;;1.63;1.30;;;7.20;98.20;;;;;;5056659;28;20896;-81
2023/11/22 10:11:17;;;;;;;1.60;1.20;;;7.30;98.20;;;;;;5036695;28;20473;-82
2023/11/22 10:13:45;;;;;;;1.70;1.30;;;7.30;98.20;;;;;;5057321;28;20743;-82
2023/11/22 10:16:15;;;;;;;1.67;1.30;;;7.30;98.20;;;;;;5037913;28;20473;-81
2023/11/22 10:18:43;;;;;;;1.67;1.30;;;7.40;98.20;;;;;;5055842;28;20479;-82
2023/11/22 10:21:23;;;;;;;1.67;1.20;;;7.40;98.20;;;;;;5041482;28;20493;-84
2023/11/22 10:23:52;;;;;;;1.60;1.20;;;7.60;98.20;;;;;;5056395;28;20460;-79
2023/11/22 10:26:19;;;;;;;1.60;1.30;;;7.60;98.20;;;;;;5041877;28;20477;-81
2023/11/22 10:28:46;;;;;;;1.60;1.30;;;7.60;98.20;;;;;;5057608;28;20458;-83
2023/11/22 10:31:14;;;;;;;1.60;1.20;;;7.70;98.20;;;;;;5041638;28;20769;-83
2023/11/22 10:33:43;;;;;;;1.80;1.60;;;7.70;98.20;;;;;;5054823;28;20454;-81
2023/11/22 10:36:10;;;;;;;1.60;1.20;;;7.80;98.20;;;;;;5041168;28;20556;-80
2023/11/22 10:38:38;;;;;;;1.63;1.30;;;7.90;98.20;;;;;;5055460;28;20490;-80
2023/11/22 10:41:07;;;;;;;1.60;1.20;;;8.00;98.20;;;;;;5040341;28;20479;-83
2023/11/22 10:43:36;;;;;;;1.63;1.20;;;8.00;98.20;;;;;;5051110;28;20899;-79
2023/11/22 10:46:04;;;;;;;1.70;1.30;;;8.00;98.20;;;;;;5038088;28;20489;-81
2023/11/22 10:48:32;;;;;;;1.60;1.10;;;8.10;98.20;;;;;;5060862;28;20463;-80
2023/11/22 10:51:05;;;;;;;1.60;1.20;;;8.10;98.20;;;;;;5040410;28;20916;-82
2023/11/22 10:53:34;;;;;;;1.70;1.37;;;8.10;98.20;;;;;;5058357;28;20458;-79
2023/11/22 10:56:13;;;;;;;1.60;1.23;;;8.10;98.20;;;;;;5037113;28;20513;-80
2023/11/22 10:58:47;;;;;;;1.60;1.20;;;8.20;98.20;;;;;;5059460;28;20510;-79
2023/11/22 11:01:17;;;;;;;1.60;1.20;;;8.20;98.20;;;;;;5037538;28;20487;-76
2023/11/22 11:03:50;;;;;;;1.63;1.20;;;8.20;98.20;;;;;;5052621;28;20462;-77
2023/11/22 11:06:26;;;;;;;1.60;1.20;;;8.20;98.20;;;;;;5035211;28;20569;-78
2023/11/22 11:08:56;;;;;;;1.60;1.20;;;8.20;98.20;;;;;;5059482;28;20488;-77
2023/11/22 11:11:25;;;;;;;1.60;1.20;;;8.20;98.20;;;;;;5039238;28;20477;-78
2023/11/22 11:13:53;;;;;;;1.60;1.20;;;8.20;98.20;;;;;;5061281;28;20450;-77
2023/11/22 11:16:21;;;;;;;1.63;1.23;;;8.20;98.20;;;;;;5041485;28;20868;-77
2023/11/22 11:18:48;;;;;;;1.67;1.30;;;8.10;98.20;;;;;;5061655;28;21013;-78
2023/11/22 11:21:16;;;;;;;1.70;1.20;;;8.10;98.20;;;;;;5041786;28;21056;-77
2023/11/22 11:23:44;;;;;;;1.60;1.10;;;8.20;98.20;;;;;;5061413;28;20464;-77
2023/11/22 11:26:16;;;;;;;1.60;1.20;;;8.10;98.20;;;;;;5041127;28;20491;-78
2023/11/22 11:28:47;;;;;;;1.60;1.20;;;8.10;98.20;;;;;;5062126;28;20451;-78
2023/11/22 11:31:15;;;;;;;1.63;1.30;;;8.10;98.20;;;;;;5039144;28;20916;-77
2023/11/22 11:33:57;;;;;;;1.70;1.20;;;8.10;98.20;;;;;;5059626;28;20450;-78
2023/11/22 11:36:25;;;;;;;1.60;1.20;;;8.20;98.20;;;;;;5040548;28;20485;-77
2023/11/22 11:38:54;;;;;;;1.67;1.20;;;8.20;98.20;;;;;;5059916;28;20514;-77
2023/11/22 11:41:26;;;;;;;1.63;1.30;;;8.20;98.20;;;;;;5041232;28;20469;-78
2023/11/22 11:43:56;;;;;;;1.60;1.20;;;8.10;97.90;;;;;;5060349;28;20454;-78
2023/11/22 11:46:25;;;;;;;1.60;1.20;;;8.20;98.20;;;;;;5042992;28;20506;-79
2023/11/22 11:48:53;;;;;;;1.60;1.20;;;8.20;98.20;;;;;;5059877;28;20937;-79
2023/11/22 11:51:21;;;;;;;1.60;1.13;;;8.20;98.20;;;;;;5042225;28;20558;-78
2023/11/22 11:53:48;;;;;;;1.63;1.20;;;8.30;98.20;;;;;;5063037;28;20577;-79
2023/11/22 11:56:17;;;;;;;1.60;1.20;;;8.30;98.20;;;;;;5044549;28;20470;-77
2023/11/22 11:58:44;;;;;;;1.60;1.20;;;8.40;98.20;;;;;;5062068;28;20488;-78
2023/11/22 12:01:14;;;;;;;1.63;1.20;;;8.40;98.20;;;;;;5041173;28;20488;-78
2023/11/22 12:03:45;;;;;;;1.60;1.10;;;8.50;98.20;;;;;;5063067;28;20493;-78
2023/11/22 12:06:15;;;;;;;1.60;1.20;;;8.50;98.20;;;;;;5045101;28;20564;-78
2023/11/22 12:08:42;;;;;;;1.60;1.20;;;8.50;98.20;;;;;;5062043;28;20537;-78
2023/11/22 12:11:10;;;;;;;1.60;1.20;;;8.50;98.20;;;;;;5039592;28;20493;-78
2023/11/22 12:13:38;;;;;;;1.60;1.17;;;8.50;98.20;;;;;;5060786;28;20753;-78
2023/11/22 12:16:10;;;;;;;1.60;1.10;;;8.60;98.20;;;;;;5043661;28;20458;-78
2023/11/22 12:18:42;;;;;;;1.60;1.10;;;8.60;98.20;;;;;;5062917;28;20497;-79
2023/11/22 12:21:12;;;;;;;1.60;1.20;;;8.60;98.20;;;;;;5041478;28;20613;-78
2023/11/22 12:23:40;;;;;;;1.60;1.17;;;8.60;98.20;;;;;;5055748;28;20915;-78
2023/11/22 12:26:12;;;;;;;1.60;1.10;;;8.60;98.20;;;;;;5038251;28;20981;-78
2023/11/22 12:28:40;;;;;;;1.60;1.10;;;8.50;98.20;;;;;;5055890;28;20486;-78
2023/11/22 12:31:09;;;;;;;1.60;1.20;;;8.50;98.20;;;;;;5038780;28;20563;-78
2023/11/22 12:33:36;;;;;;;1.60;1.20;;;8.40;98.20;;;;;;5056227;28;20473;-78
2023/11/22 12:36:05;;;;;;;1.60;1.20;;;8.40;98.20;;;;;;5035479;28;20458;-78
2023/11/22 12:38:32;;;;;;;1.60;1.20;;;8.40;98.20;;;;;;5060566;28;24996;-78
2023/11/22 12:40:59;;;;;;;1.60;1.20;;;8.40;98.20;;;;;;5038243;28;20487;-78
2023/11/22 12:43:27;;;;;;;1.60;1.20;;;8.60;98.20;;;;;;5057978;28;20556;-81
2023/11/22 12:46:00;;;;;;;1.60;1.20;;;8.70;98.20;;;;;;5038945;28;20631;-78
2023/11/22 12:48:29;;;;;;;1.60;1.20;;;8.90;98.20;;;;;;5059361;28;20534;-78
2023/11/22 12:50:57;;;;;;;1.60;1.20;;;9.10;98.20;;;;;;5036424;28;20985;-78
2023/11/22 12:53:27;;;;;;;1.60;1.10;;;9.20;97.40;;;;;;5058603;28;20578;-78
2023/11/22 12:55:56;;;;;;;1.60;1.10;;;9.30;98.20;;;;;;5036105;28;20511;-78
2023/11/22 12:58:24;;;;;;;1.60;1.20;;;9.40;96.10;;;;;;5061995;28;21029;-78
2023/11/22 13:00:57;;;;;;;1.60;1.20;;;9.40;94.10;;;;;;5036579;28;20498;-78
2023/11/22 13:03:25;;;;;;;1.70;1.30;;;9.50;96.60;;;;;;5057944;28;20462;-78
2023/11/22 13:05:53;;;;;;;1.60;1.20;;;9.50;95.80;;;;;;5032863;28;20708;-78
2023/11/22 13:08:21;;;;;;;1.60;1.20;;;9.50;95.60;;;;;;5055413;28;20910;-78
2023/11/22 13:10:53;;;;;;;1.60;1.20;;;9.50;95.70;;;;;;5037206;28;20478;-78
2023/11/22 13:13:20;;;;;;;1.60;1.20;;;9.50;94.00;;;;;;5061515;28;20443;-77
2023/11/22 13:15:47;;;;;;;1.67;1.30;;;9.40;95.30;;;;;;5038992;28;20670;-78
2023/11/22 13:18:14;;;;;;;1.60;1.20;;;9.40;97.10;;;;;;5062250;28;20557;-78
2023/11/22 13:20:43;;;;;;;1.60;1.20;;;9.30;97.90;;;;;;5043315;28;20512;-78